Time;durP1;ratioP1;P1;durP2;ratioP2;P2;SDS_P1;SDS_P2;PMS_P1;PMS_P2;Temp;Humidity;BMP_temperature;BMP_pressure;BME280_temperature;BME280_humidity;BME280_pressure;Samples;Min_cycle;Max_cycle;Signal;HPM_P1;HPM_P2
2022/11/18 00:07:55;;;;;;;12.20;6.60;;;10.90;99.90;;;;;;21084282;28;20229;-73
2022/11/18 00:17:57;;;;;;;12.27;6.50;;;10.90;99.90;;;;;;21083690;28;20209;-74
2022/11/18 00:27:59;;;;;;;14.07;7.07;;;10.90;99.90;;;;;;21082330;28;20309;-71
2022/11/18 00:38:00;;;;;;;11.60;6.90;;;11.00;99.90;;;;;;21081610;28;20692;-71
2022/11/18 00:48:02;;;;;;;14.83;6.10;;;11.00;99.90;;;;;;21081103;28;20565;-69
2022/11/18 00:58:04;;;;;;;10.27;5.77;;;10.90;99.90;;;;;;21080479;28;20201;-71
2022/11/18 01:08:07;;;;;;;11.23;6.33;;;10.80;99.90;;;;;;21080194;28;20232;-73
2022/11/18 01:18:09;;;;;;;10.37;6.20;;;10.80;99.90;;;;;;21071028;28;20256;-74
2022/11/18 01:28:12;;;;;;;16.97;6.43;;;10.70;99.90;;;;;;20991107;28;20687;-75
2022/11/18 01:38:18;;;;;;;12.10;5.67;;;10.70;99.90;;;;;;20994778;28;20259;-75
2022/11/18 01:48:23;;;;;;;11.50;5.87;;;10.70;99.90;;;;;;20995028;28;20227;-74
2022/11/18 01:58:39;;;;;;;11.67;5.97;;;10.60;99.90;;;;;;21010795;28;20215;-71
2022/11/18 02:08:41;;;;;;;9.07;5.97;;;10.70;99.90;;;;;;21010296;28;20240;-69
2022/11/18 02:19:08;;;;;;;11.40;6.30;;;10.60;99.90;;;;;;21008961;28;20590;-70
2022/11/18 02:29:20;;;;;;;11.23;6.50;;;10.60;99.90;;;;;;21007994;28;20236;-74
2022/11/18 02:39:31;;;;;;;9.13;5.90;;;10.70;99.90;;;;;;21007839;28;20248;-74
2022/11/18 02:49:53;;;;;;;12.40;5.60;;;10.70;99.90;;;;;;21006364;28;20236;-71
2022/11/18 02:59:55;;;;;;;9.37;5.60;;;10.70;99.90;;;;;;21005605;28;20205;-73
2022/11/18 03:09:58;;;;;;;10.67;5.40;;;10.70;99.90;;;;;;21005432;28;20237;-73
2022/11/18 03:20:24;;;;;;;9.07;4.83;;;10.80;99.90;;;;;;21003437;28;20210;-73
2022/11/18 03:30:29;;;;;;;7.00;4.20;;;10.80;99.90;;;;;;21000230;28;20236;-71
2022/11/18 03:40:32;;;;;;;4.17;3.43;;;10.80;99.90;;;;;;21003250;28;20683;-69
2022/11/18 03:50:41;;;;;;;6.53;3.37;;;10.90;99.90;;;;;;21001916;28;20314;-69
2022/11/18 04:00:46;;;;;;;8.90;3.97;;;10.90;99.90;;;;;;21001179;28;20214;-71
2022/11/18 04:10:53;;;;;;;6.57;3.40;;;10.80;99.90;;;;;;20999539;28;20238;-69
2022/11/18 04:20:55;;;;;;;6.13;3.87;;;10.90;99.90;;;;;;20999632;28;20212;-69
2022/11/18 04:30:57;;;;;;;5.83;3.20;;;10.90;99.90;;;;;;20980521;28;20242;-70
2022/11/18 04:40:58;;;;;;;4.87;4.03;;;11.00;99.90;;;;;;20998006;28;20210;-70
2022/11/18 04:51:04;;;;;;;8.60;3.43;;;10.90;99.90;;;;;;20997871;28;20566;-70
2022/11/18 05:01:06;;;;;;;6.77;4.27;;;10.90;99.90;;;;;;20996784;28;20209;-69
2022/11/18 05:21:27;;;;;;;13.00;6.27;;;10.90;99.90;;;;;;20993632;28;20218;-70
2022/11/18 05:31:30;;;;;;;7.70;5.33;;;10.90;99.90;;;;;;20991492;28;20240;-69
2022/11/18 05:51:52;;;;;;;5.53;3.73;;;10.80;99.90;;;;;;20993853;28;20234;-70
2022/11/18 06:01:54;;;;;;;6.50;3.60;;;;;;;;;;20991606;28;20213;-76
2022/11/18 06:11:59;;;;;;;5.00;3.47;;;10.80;99.90;;;;;;20992488;28;20230;-67
2022/11/18 06:22:02;;;;;;;5.17;2.83;;;10.70;99.90;;;;;;21048145;28;20733;-71
2022/11/18 06:32:04;;;;;;;4.37;2.40;;;10.70;99.90;;;;;;21073843;28;20594;-75
2022/11/18 06:42:05;;;;;;;3.43;1.97;;;10.60;99.90;;;;;;21087601;28;20661;-72
2022/11/18 06:52:07;;;;;;;4.63;1.90;;;10.60;99.90;;;;;;21070774;28;20231;-68
2022/11/18 07:02:09;;;;;;;5.20;2.13;;;10.60;99.90;;;;;;21068208;28;20212;-66
2022/11/18 07:12:10;;;;;;;3.57;1.80;;;10.60;99.90;;;;;;21044731;28;20233;-70
2022/11/18 07:22:13;;;;;;;4.30;1.53;;;10.70;99.90;;;;;;21001798;28;20217;-70
2022/11/18 07:32:14;;;;;;;1.70;1.60;;;10.70;99.90;;;;;;21002063;28;20318;-70
2022/11/18 07:42:16;;;;;;;1.93;1.27;;;10.70;99.90;;;;;;21000616;28;20216;-70
2022/11/18 07:52:18;;;;;;;1.27;1.17;;;10.70;99.90;;;;;;20998037;28;20242;-70
2022/11/18 08:02:19;;;;;;;1.23;0.97;;;10.70;99.90;;;;;;20999445;28;20208;-69
2022/11/18 08:12:21;;;;;;;0.80;0.80;;;10.60;99.90;;;;;;20998993;28;20328;-70
2022/11/18 08:22:23;;;;;;;1.40;0.80;;;10.50;99.90;;;;;;20998363;28;20259;-70
2022/11/18 08:32:25;;;;;;;1.97;1.53;;;10.50;99.90;;;;;;21020662;28;20252;-69
2022/11/18 08:42:26;;;;;;;1.10;0.90;;;10.50;99.90;;;;;;20995597;28;20208;-69
2022/11/18 08:52:35;;;;;;;1.00;0.90;;;10.50;99.90;;;;;;20996311;28;20233;-70
2022/11/18 09:02:36;;;;;;;1.03;0.73;;;10.60;99.90;;;;;;20995111;28;20215;-69
2022/11/18 09:12:38;;;;;;;1.00;1.00;;;10.70;99.90;;;;;;20995013;28;20237;-70
2022/11/18 09:22:40;;;;;;;1.10;1.00;;;10.80;99.90;;;;;;20994632;28;20208;-70
2022/11/18 09:32:41;;;;;;;1.30;1.03;;;10.90;99.90;;;;;;20993723;28;20249;-68
2022/11/18 09:43:25;;;;;;;3.33;1.30;;;10.90;99.90;;;;;;21064351;28;20220;-69
2022/11/18 09:53:27;;;;;;;2.30;1.50;;;11.00;99.90;;;;;;21076966;28;20243;-70
2022/11/18 10:03:31;;;;;;;5.87;1.60;;;11.10;99.90;;;;;;21075957;28;20213;-71
2022/11/18 10:13:45;;;;;;;3.97;1.37;;;11.10;99.90;;;;;;21083852;28;20279;-72
2022/11/18 10:23:52;;;;;;;2.63;1.50;;;11.20;99.90;;;;;;21092834;28;20542;-74
2022/11/18 10:34:01;;;;;;;2.50;1.60;;;11.10;99.90;;;;;;21048401;28;20769;-72
2022/11/18 10:44:03;;;;;;;1.93;1.30;;;11.10;99.90;;;;;;21022532;28;20215;-73
2022/11/18 10:54:18;;;;;;;1.43;1.27;;;11.10;99.90;;;;;;21089811;28;20268;-70
2022/11/18 11:04:24;;;;;;;1.23;1.13;;;11.30;99.90;;;;;;21088333;28;20303;-70
2022/11/18 11:14:47;;;;;;;1.77;1.40;;;11.30;99.90;;;;;;21087791;28;20253;-70
2022/11/18 11:24:49;;;;;;;1.67;1.20;;;11.40;99.90;;;;;;21086378;28;20217;-70
2022/11/18 11:35:11;;;;;;;1.43;1.20;;;11.50;99.90;;;;;;21085233;28;20267;-76
2022/11/18 11:45:31;;;;;;;3.97;1.40;;;11.50;99.90;;;;;;21081544;28;20244;-78
2022/11/18 11:56:00;;;;;;;2.20;1.23;;;11.50;99.90;;;;;;21083780;28;20232;-75
2022/11/18 12:06:02;;;;;;;3.93;1.50;;;11.60;99.90;;;;;;21083379;28;20577;-77
2022/11/18 12:16:15;;;;;;;1.20;1.10;;;11.50;99.90;;;;;;21082110;28;20251;-76
2022/11/18 12:26:33;;;;;;;4.23;1.10;;;11.50;99.90;;;;;;21082159;28;20209;-71
2022/11/18 12:36:38;;;;;;;1.40;1.10;;;11.50;99.90;;;;;;20885165;28;20243;-74
2022/11/18 12:46:48;;;;;;;1.10;1.00;;;11.40;99.90;;;;;;20860657;28;20290;-75
2022/11/18 12:56:50;;;;;;;4.00;1.40;;;11.30;99.90;;;;;;20899678;28;20295;-75
2022/11/18 13:06:54;;;;;;;1.47;1.10;;;11.30;99.90;;;;;;20829664;28;20212;-75
2022/11/18 13:27:47;;;;;;;4.37;2.20;;;11.50;99.90;;;;;;20843920;28;20299;-75
2022/11/18 13:37:51;;;;;;;3.07;2.00;;;11.70;99.90;;;;;;20992795;28;20243;-74
2022/11/18 13:53:08;;;;;;;4.23;2.13;;;11.80;99.90;;;;;;20957879;28;20586;-75
2022/11/18 14:03:38;;;;;;;5.17;2.07;;;11.80;99.90;;;;;;20899930;28;20282;-74
2022/11/18 14:13:50;;;;;;;5.40;2.20;;;12.30;99.90;;;;;;20840776;28;20215;-74
2022/11/18 14:23:52;;;;;;;3.17;2.07;;;12.20;99.90;;;;;;20816795;28;20693;-72
2022/11/18 14:34:17;;;;;;;6.47;2.13;;;11.90;99.90;;;;;;20814781;28;20220;-67
2022/11/18 14:44:20;;;;;;;2.57;2.20;;;11.90;99.90;;;;;;20824841;28;20235;-63
2022/11/18 14:54:24;;;;;;;6.20;2.60;;;11.60;99.90;;;;;;20894203;28;20204;-68
2022/11/18 15:04:28;;;;;;;5.80;2.77;;;11.60;99.90;;;;;;20840852;28;20237;-64
2022/11/18 15:14:30;;;;;;;4.00;3.00;;;11.60;99.90;;;;;;20839797;28;20203;-70
2022/11/18 15:24:31;;;;;;;5.03;2.87;;;11.50;99.90;;;;;;20839040;28;20235;-71
2022/11/18 15:34:33;;;;;;;4.93;2.70;;;11.40;99.90;;;;;;20838686;28;20218;-69
2022/11/18 15:44:35;;;;;;;5.60;3.17;;;11.40;99.90;;;;;;20837369;28;20297;-71
2022/11/18 15:54:37;;;;;;;4.97;2.33;;;11.10;99.90;;;;;;20837065;28;20283;-71
2022/11/18 16:04:38;;;;;;;4.60;1.90;;;11.00;99.90;;;;;;20836278;28;20586;-70
2022/11/18 16:14:40;;;;;;;5.77;2.77;;;11.00;99.90;;;;;;20833502;28;20216;-71
2022/11/18 16:24:44;;;;;;;4.67;3.20;;;10.90;99.90;;;;;;20833060;28;20266;-70
2022/11/18 16:34:49;;;;;;;4.57;2.67;;;10.90;99.90;;;;;;20836019;28;20215;-69
2022/11/18 16:44:50;;;;;;;5.53;2.80;;;10.90;99.90;;;;;;20835574;28;20309;-73
2022/11/18 16:54:53;;;;;;;2.73;1.80;;;10.90;99.90;;;;;;20832198;28;20210;-72
2022/11/18 17:04:54;;;;;;;5.20;2.17;;;10.80;99.90;;;;;;20830760;28;20302;-72
2022/11/18 17:14:56;;;;;;;3.97;1.70;;;10.70;99.90;;;;;;20831306;28;20202;-71
2022/11/18 17:24:57;;;;;;;5.43;2.50;;;10.70;99.90;;;;;;20830463;28;20234;-73
2022/11/18 17:35:07;;;;;;;5.57;2.60;;;10.60;99.90;;;;;;20828820;28;20263;-71
2022/11/18 17:45:09;;;;;;;4.30;2.30;;;10.70;99.90;;;;;;20828122;28;20291;-71
2022/11/18 17:55:11;;;;;;;5.53;3.20;;;10.70;99.90;;;;;;20826267;28;20217;-71
2022/11/18 18:05:14;;;;;;;5.27;2.93;;;10.70;99.90;;;;;;20784982;28;20287;-70
2022/11/18 18:15:15;;;;;;;7.03;3.27;;;10.60;99.90;;;;;;20825238;28;20646;-71
2022/11/18 18:25:17;;;;;;;6.50;3.40;;;10.60;99.90;;;;;;20828157;28;20262;-65
2022/11/18 18:35:19;;;;;;;4.37;2.60;;;10.50;99.90;;;;;;20837326;28;20210;-71
2022/11/18 19:03:41;;;;;;;5.60;3.10;;;10.30;99.90;;;;;;21066642;27;20583;-73
2022/11/18 19:13:43;;;;;;;5.83;3.80;;;10.20;99.90;;;;;;21065514;28;20253;-73
2022/11/18 19:23:45;;;;;;;5.47;3.10;;;10.10;99.90;;;;;;21064347;28;20261;-73
2022/11/18 19:33:47;;;;;;;7.13;3.33;;;;;;;;;;21062470;28;20576;-76
2022/11/18 19:43:49;;;;;;;11.10;4.77;;;10.10;99.90;;;;;;21063348;28;20275;-75
2022/11/18 19:53:51;;;;;;;6.30;4.23;;;10.10;99.90;;;;;;20989571;28;20210;-72
2022/11/18 20:04:04;;;;;;;9.73;5.83;;;10.10;99.90;;;;;;20977422;28;20202;-73
2022/11/18 20:14:07;;;;;;;7.23;4.53;;;10.10;99.90;;;;;;20926851;28;20229;-72
2022/11/18 20:24:14;;;;;;;7.30;4.20;;;10.00;99.90;;;;;;20920125;28;20206;-71
2022/11/18 20:34:16;;;;;;;8.40;5.00;;;10.00;99.90;;;;;;20920858;28;20232;-72
2022/11/18 20:44:18;;;;;;;8.23;4.80;;;10.00;99.90;;;;;;20949090;28;20200;-72
2022/11/18 20:54:20;;;;;;;3.80;3.03;;;10.00;99.90;;;;;;20929560;28;20770;-72
2022/11/18 21:04:21;;;;;;;4.80;2.40;;;9.90;99.90;;;;;;20930506;28;20671;-72
2022/11/18 21:14:24;;;;;;;2.47;2.10;;;9.70;99.90;;;;;;20920873;28;20260;-72
2022/11/18 21:24:28;;;;;;;3.03;2.20;;;9.60;99.90;;;;;;20921365;28;20675;-73
2022/11/18 21:34:30;;;;;;;5.07;1.90;;;9.50;99.90;;;;;;20909327;28;20254;-72
2022/11/18 21:44:32;;;;;;;2.30;2.00;;;9.10;99.90;;;;;;20914821;28;20231;-72
2022/11/18 21:54:35;;;;;;;3.13;2.40;;;8.90;99.90;;;;;;20913483;28;20232;-71
2022/11/18 22:05:53;;;;;;;2.60;2.17;;;8.60;99.90;;;;;;21407368;27;20505;-69
2022/11/18 22:16:15;;;;;;;3.00;2.30;;;8.60;99.90;;;;;;21319745;27;20212;-70
2022/11/18 22:26:19;;;;;;;2.73;2.30;;;8.20;99.90;;;;;;21319018;27;20220;-70
2022/11/18 22:36:23;;;;;;;3.67;2.37;;;8.10;99.90;;;;;;21318349;27;20239;-70
2022/11/18 22:46:25;;;;;;;3.93;2.97;;;7.80;99.60;;;;;;21317660;27;20261;-71
2022/11/18 22:56:26;;;;;;;4.40;3.10;;;7.60;99.20;;;;;;21318578;27;20253;-70
2022/11/18 23:06:28;;;;;;;4.33;3.37;;;7.60;99.40;;;;;;21318382;27;20217;-71
2022/11/18 23:16:31;;;;;;;6.97;3.60;;;7.50;99.00;;;;;;21264076;27;20575;-70
2022/11/18 23:26:33;;;;;;;4.23;3.50;;;7.40;98.90;;;;;;21211409;27;20691;-70
2022/11/18 23:36:35;;;;;;;4.80;3.80;;;7.40;98.90;;;;;;21168802;28;20232;-70
2022/11/18 23:46:36;;;;;;;4.93;3.77;;;6.90;97.80;;;;;;21172823;28;20287;-70
2022/11/18 23:56:38;;;;;;;5.43;4.07;;;6.90;97.90;;;;;;21171645;28;20232;-70
